Flight Track Log - Related Links

Times and Time Zones

All times are in EDT time to prevent confusion due to time zone crossing. See the N1900A flight status page for this flight to view local times or setup timezone preferences in your user account.

Time Position Orientation Groundspeed Altitude Reporting Facility
EDT Latitude Longitude Course Direction KTS MPH feet Rate Location/Type
Wed 04:08:09 PM 26.2389 -80.1042 111° Southeast 136 157 200  Level Miami Center
Wed 04:08:52 PM 26.2247 -80.0633 118° Southeast 231 266 1,300 1,527 Climbing Miami Center
Wed 04:09:59 PM 26.2281 -79.9756 88° East 255 293 3,000 1,219 Climbing Miami Center
Wed 04:11:00 PM 26.2331 -79.8922 86° East 265 305 3,900 909 Climbing Miami Center
Wed 04:12:11 PM 26.2458 -79.7972 81° East 281 323 5,000 2,273 Climbing Miami Center
Wed 04:13:12 PM 26.2542 -79.7125 84° East 275 316 8,900 2,780 Climbing Miami Center
Wed 04:14:14 PM 26.2611 -79.6186 85° East 314 361 10,700 1,742 Climbing Miami Center
Wed 04:15:16 PM 26.2281 -79.5214 111° Southeast 342 394 12,500 1,790 Climbing Miami Center
Wed 04:16:18 PM 26.1650 -79.4325 128° Southeast 362 417 14,400 1,805 Climbing Miami Center
Wed 04:17:19 PM 26.1006 -79.3433 129° Southeast 366 421 16,200 1,805 Climbing Miami Center
Wed 04:18:21 PM 26.0208 -79.2358 130° Southeast 372 428 18,100 1,742 Climbing Miami Center
Wed 04:19:23 PM 25.9542 -79.1447 129° Southeast 377 434 19,800 1,645 Climbing Miami Center
Wed 04:20:25 PM 25.8822 -79.0611 134° Southeast 375 432 21,500 1,645 Climbing Miami Center
Wed 04:21:27 PM 25.8094 -78.9781 134° Southeast 375 432 23,200 1,512 Climbing Miami Center
Wed 04:22:28 PM 25.7256 -78.8850 135° Southeast 376 433 24,600 1,220 Climbing Miami Center
Wed 04:23:30 PM 25.6492 -78.7994 135° Southeast 386 444 25,700 1,065 Climbing Miami Center
Wed 04:24:32 PM 25.5736 -78.7142 134° Southeast 387 445 26,800 1,016 Climbing Miami Center
Wed 04:25:34 PM 25.4961 -78.6281 135° Southeast 390 449 27,800 919 Climbing Miami Center
Wed 04:26:36 PM 25.4136 -78.5333 134° Southeast 390 449 28,700 780 Climbing Miami Center
Wed 04:27:37 PM 25.3322 -78.4456 136° Southeast 402 463 29,400 683 Climbing Miami Center
Wed 04:28:39 PM 25.2531 -78.3564 134° Southeast 403 464 30,100 629 Climbing Miami Center
Wed 04:29:41 PM 25.1636 -78.2572 135° Southeast 410 472 30,700 677 Climbing Miami Center
Wed 04:30:43 PM 25.0822 -78.1678 135° Southeast 411 473 31,500 677 Climbing Miami Center
Wed 04:31:45 PM 25.0017 -78.0778 135° Southeast 412 474 32,100 634 Climbing Miami Center
Wed 04:32:46 PM 24.9203 -77.9883 135° Southeast 412 474 32,800 683 Climbing Miami Center
Wed 04:33:48 PM 24.8314 -77.8897 135° Southeast 413 475 33,500 677 Climbing Miami Center
Wed 04:34:50 PM 24.7511 -77.7983 134° Southeast 411 473 34,200 629 Climbing Miami Center
Wed 04:35:52 PM 24.6711 -77.7078 134° Southeast 412 474 34,800 677 Climbing Miami Center
Wed 04:36:54 PM 24.5833 -77.6106 135° Southeast 409 471 35,600 683 Climbing Miami Center
Wed 04:37:55 PM 24.5028 -77.5228 135° Southeast 408 470 36,200 537 Climbing Miami Center
Wed 04:38:57 PM 24.4239 -77.4342 134° Southeast 407 468 36,700 581 Climbing Miami Center
Wed 04:39:59 PM 24.3369 -77.3367 134° Southeast 406 467 37,400 629 Climbing Miami Center
Wed 04:41:01 PM 24.2575 -77.2478 134° Southeast 407 468 38,000 532 Climbing Miami Center
Wed 04:42:03 PM 24.1794 -77.1581 134° Southeast 407 468 38,500 532 Climbing Miami Center
Wed 04:43:05 PM 24.0967 -77.0728 137° Southeast 407 468 39,100 581 Climbing Miami Center
Wed 04:44:07 PM 24.0047 -76.9794 137° Southeast 410 472 39,700 581 Climbing Miami Center
Wed 04:45:09 PM 23.9222 -76.8956 137° Southeast 406 467 40,300 581 Climbing Miami Center
Wed 04:46:11 PM 23.8453 -76.8189 138° Southeast 405 466 40,900 339 Climbing Miami Center
Wed 04:47:13 PM 23.7639 -76.7350 137° Southeast 404 465 41,000 48 Climbing Miami Center
Wed 04:48:15 PM 23.6614 -76.6353 138° Southeast 410 472 41,000  Level Miami Center
Wed 04:49:16 PM 23.5769 -76.5486 137° Southeast 414 476 41,000  Level Miami Center
Wed 04:50:18 PM 23.4894 -76.4628 138° Southeast 422 486 41,000  Level Miami Center
Wed 04:51:20 PM 23.4031 -76.3753 137° Southeast 425 489 41,000  Level Miami Center
Wed 04:52:22 PM 23.3164 -76.2869 137° Southeast 425 489 41,000  Level Miami Center
Wed 04:53:24 PM 23.2283 -76.1997 138° Southeast 427 491 41,000  Level Miami Center
Wed 04:54:26 PM 23.1236 -76.0950 137° Southeast 428 493 41,000  Level Miami Center
Wed 04:55:28 PM 23.0344 -76.0075 138° Southeast 430 495 41,000  Level Miami Center
Wed 04:56:30 PM 22.9464 -75.9175 137° Southeast 433 498 41,000  Level Miami Center
Wed 04:57:32 PM 22.8572 -75.8308 138° Southeast 435 501 41,000  Level Miami Center
Wed 04:58:34 PM 22.7675 -75.7417 137° Southeast 435 501 41,000  Level Miami Center
Wed 04:59:36 PM 22.6606 -75.6356 138° Southeast 435 501 41,000  Level Miami Center
Wed 05:00:38 PM 22.5714 -75.5478 138° Southeast 435 501 41,000  Level Miami Center
Wed 05:01:40 PM 22.4833 -75.4600 137° Southeast 434 499 41,000  Level Miami Center
Wed 05:03:44 PM 22.3047 -75.2869 138° Southeast 431 496 41,000  Level Miami Center
Wed 05:04:45 PM 22.2150 -75.1997 138° Southeast 431 496 41,000  Level Miami Center
Wed 05:05:47 PM 22.1083 -75.0961 138° Southeast 430 495 41,000  Level Miami Center
Wed 05:06:49 PM 22.0178 -75.0078 138° Southeast 432 497 41,000  Level Miami Center
Wed 05:07:51 PM 21.9289 -74.9214 138° Southeast 432 497 41,000  Level Miami Center
Wed 05:08:53 PM 21.8389 -74.8339 138° Southeast 432 497 41,000  Level Miami Center
Wed 05:09:55 PM 21.7497 -74.7469 138° Southeast 432 497 41,000 -48 Level Miami Center
Wed 05:10:57 PM 21.6519 -74.6531 138° Southeast 433 498 40,900  Descending Miami Center
Wed 05:11:59 PM 21.5611 -74.5658 138° Southeast 436 502 41,000 48 Climbing Miami Center
Wed 05:13:01 PM 21.4700 -74.4781 138° Southeast 436 502 41,000 -48 Level Miami Center
Wed 05:14:03 PM 21.3794 -74.3897 138° Southeast 437 503 40,900 -48 Descending Miami Center
Wed 05:15:05 PM 21.2889 -74.3031 138° Southeast 437 503 40,900  Level Miami Center
Wed 05:16:06 PM 21.1792 -74.1975 138° Southeast 438 504 40,900  Level Miami Center
Wed 05:17:08 PM 21.0875 -74.1103 138° Southeast 438 504 40,900  Level Miami Center
Wed 05:18:10 PM 20.9961 -74.0233 138° Southeast 438 504 40,900  Level Miami Center
Wed 05:19:12 PM 20.9050 -73.9358 138° Southeast 438 504 40,900 48 Level Miami Center
Wed 05:20:14 PM 20.8139 -73.8481 138° Southeast 438 504 41,000  Climbing Miami Center
Wed 05:21:16 PM 20.7225 -73.7608 138° Southeast 439 505 40,900 -49 Descending Miami Center
Wed 05:22:17 PM 20.6292 -73.6744 139° Southeast 439 505 40,900 49 Level Miami Center
Wed 05:23:19 PM 20.5189 -73.5692 138° Southeast 441 507 41,000  Climbing Miami Center
Wed 05:24:21 PM 20.4272 -73.4822 138° Southeast 441 507 40,900  Descending Miami Center
Wed 05:25:23 PM 20.3347 -73.3950 139° Southeast 441 507 41,000 48 Climbing Miami Center
Wed 05:26:25 PM 20.2431 -73.3081 138° Southeast 441 507 41,000  Level Miami Center
Wed 05:27:26 PM 20.1508 -73.2222 139° Southeast 441 507 41,000  Level Miami Center
Wed 05:29:00 PM 19.9915 -73.1327 151° Southeast  Level FlightAware
Wed 05:36:00 PM 19.2854 -72.7361 153° Southeast  Level FlightAware
Wed 05:37:00 PM 19.1840 -72.6807 153° Southeast  Level FlightAware
Wed 05:38:00 PM 19.0825 -72.6253 153° Southeast  Level FlightAware
Wed 05:39:00 PM 18.9816 -72.5689 152° Southeast  Level FlightAware
Wed 05:40:00 PM 18.8808 -72.5124 152° Southeast  Level FlightAware
Wed 05:41:00 PM 18.7799 -72.4560 152° Southeast  Level FlightAware
Wed 05:42:00 PM 18.6791 -72.3996 152° Southeast  Level FlightAware
Wed 05:43:00 PM 18.5777 -72.3443 153° Southeast  Level FlightAware
Wed 05:44:00 PM 18.4760 -72.2896 153° Southeast  Level FlightAware
Wed 05:45:00 PM 18.3774 -72.2293 148° Southeast  Level FlightAware
Wed 05:46:00 PM 18.2810 -72.1650 148° Southeast  Level FlightAware
Wed 05:47:00 PM 18.1845 -72.1007 148° Southeast  Level FlightAware
Wed 05:48:00 PM 18.0865 -72.0393 151° Southeast  Level FlightAware
Wed 05:49:00 PM 17.9867 -71.9811 151° Southeast  Level FlightAware
Wed 05:50:00 PM 17.8879 -71.9210 149° Southeast  Level FlightAware
Wed 05:51:00 PM 17.7903 -71.8589 149° Southeast  Level FlightAware
Wed 05:52:00 PM 17.6927 -71.7968 149° Southeast  Level FlightAware
Wed 05:53:00 PM 17.5951 -71.7347 149° Southeast  Level FlightAware
Wed 05:54:00 PM 17.5000 -71.6695 150° Southeast  Level FlightAware
Wed 05:55:00 PM 17.4013 -71.6094 150° Southeast  Level FlightAware
Wed 05:56:00 PM 17.3026 -71.5493 150° Southeast  Level FlightAware
Wed 05:57:00 PM 17.2039 -71.4893 150° Southeast  Level FlightAware
Wed 05:58:00 PM 17.1057 -71.4285 149° Southeast  Level FlightAware
Wed 05:59:00 PM 17.0077 -71.3672 149° Southeast  Level FlightAware
Wed 06:00:00 PM 16.9097 -71.3061 149° Southeast  Level FlightAware
Wed 06:01:00 PM 16.8114 -71.2456 150° Southeast  Level FlightAware
Wed 06:02:00 PM 16.7129 -71.1852 150° Southeast  Level FlightAware
Wed 06:03:00 PM 16.6145 -71.1249 150° Southeast  Level FlightAware
Wed 06:04:00 PM 16.5161 -71.0647 150° Southeast  Level FlightAware
Wed 06:05:00 PM 16.4176 -71.0045 150° Southeast  Level FlightAware
Wed 06:06:00 PM 16.3191 -70.9444 150° Southeast  Level FlightAware
Wed 06:07:00 PM 16.2206 -70.8843 150° Southeast  Level FlightAware
Wed 06:08:00 PM 16.1221 -70.8243 150° Southeast  Level FlightAware
Wed 06:09:00 PM 16.0236 -70.7643 150° Southeast  Level FlightAware
Wed 06:10:00 PM 15.9210 -70.7125 155° Southeast  Level FlightAware
Wed 06:11:00 PM 15.8172 -70.6633 155° Southeast  Level FlightAware
Wed 06:12:00 PM 15.7134 -70.6140 155° Southeast  Level FlightAware
Wed 06:13:00 PM 15.6095 -70.5649 155° Southeast  Level FlightAware
Wed 06:14:00 PM 15.5056 -70.5158 156° South  Level FlightAware
Wed 06:15:00 PM 15.4018 -70.4667 156° South  Level FlightAware
Wed 06:16:00 PM 15.2979 -70.4177 156° South  Level FlightAware
Wed 06:17:00 PM 15.1940 -70.3688 156° South  Level FlightAware
Wed 06:18:00 PM 15.0901 -70.3198 156° South  Level FlightAware
Wed 06:19:00 PM 14.9856 -70.2723 156° South  Level FlightAware
Wed 06:20:00 PM 14.8810 -70.2249 156° South  Level FlightAware
Wed 06:21:00 PM 14.7765 -70.1776 156° South  Level FlightAware
Wed 06:22:00 PM 14.6719 -70.1303 156° South  Level FlightAware
Wed 06:23:00 PM 14.5674 -70.0830 156° South  Level FlightAware
Wed 06:24:00 PM 14.4628 -70.0358 156° South  Level FlightAware
Wed 06:25:00 PM 14.3583 -69.9885 156° South  Level FlightAware
Wed 06:26:00 PM 14.2540 -69.9406 156° South  Level FlightAware
Wed 06:27:00 PM 14.1497 -69.8927 156° South  Level FlightAware
Wed 06:28:00 PM 14.0454 -69.8449 156° South  Level FlightAware
Wed 06:29:00 PM 13.9411 -69.7971 156° South  Level FlightAware
Wed 06:30:00 PM 13.8368 -69.7494 156° South  Level FlightAware
Wed 06:31:00 PM 13.7325 -69.7017 156° South  Level FlightAware
Wed 06:32:00 PM 13.6282 -69.6541 156° South  Level FlightAware
Wed 06:33:00 PM 13.5239 -69.6065 156° South  Level FlightAware
Wed 06:34:00 PM 13.4195 -69.5590 156° South  Level FlightAware
Wed 06:35:00 PM 13.3152 -69.5114 156° South  Level FlightAware
Wed 06:36:00 PM 13.2108 -69.4640 156° South  Level FlightAware
Wed 06:37:00 PM 13.1064 -69.4165 156° South  Level FlightAware
Wed 06:38:00 PM 13.0020 -69.3693 156° South  Level FlightAware
Wed 06:39:00 PM 12.8974 -69.3223 156° South  Level FlightAware
Wed 06:40:00 PM 12.7929 -69.2754 156° South  Level FlightAware
Wed 06:41:00 PM 12.6883 -69.2286 156° South  Level FlightAware
Wed 06:42:00 PM 12.5837 -69.1817 156° South  Level FlightAware
Wed 06:43:00 PM 12.4805 -69.1319 154° Southeast  Level FlightAware
Wed 06:44:00 PM 12.3779 -69.0806 154° Southeast  Level FlightAware
Wed 06:45:00 PM 12.2735 -69.0338 160° South  Level FlightAware
Wed 06:46:00 PM 12.1675 -68.9911 151° Southeast  Level FlightAware
Wed 06:47:00 PM 12.0675 -68.9348 151° Southeast  Level FlightAware
Wed 06:48:00 PM 11.9675 -68.8786 151° Southeast  Level FlightAware
Wed 06:49:00 PM 11.8683 -68.8210 150° Southeast  Level FlightAware
Wed 06:50:00 PM 11.7699 -68.7619 150° Southeast  Level FlightAware
Wed 06:51:00 PM 11.6917 -68.6791 124° Southeast  Level FlightAware
Wed 06:52:00 PM 11.6354 -68.5780 124° Southeast  Level FlightAware
Wed 06:53:00 PM 11.5723 -68.4809 123° Southeast  Level FlightAware
Wed 06:54:00 PM 11.5097 -68.3835 123° Southeast  Level FlightAware
Wed 06:55:00 PM 11.4466 -68.2865 124° Southeast  Level FlightAware
Wed 06:56:00 PM 11.3824 -68.1902 124° Southeast  Level FlightAware
Wed 06:57:00 PM 11.3182 -68.0939 124° Southeast  Level FlightAware
Wed 06:58:00 PM 11.2554 -67.9968 123° Southeast  Level FlightAware
Wed 06:59:00 PM 11.1930 -67.8993 123° Southeast  Level FlightAware
Wed 07:00:00 PM 11.1307 -67.8019 123° Southeast  Level FlightAware
Wed 07:01:00 PM 11.0683 -67.7045 123° Southeast  Level FlightAware
Wed 07:02:00 PM 11.0064 -67.6068 122° Southeast  Level FlightAware
Wed 07:03:00 PM 10.9450 -67.5088 123° Southeast  Level FlightAware
Wed 07:04:00 PM 10.8829 -67.4112 123° Southeast  Level FlightAware
Wed 07:05:00 PM 10.8205 -67.3140 124° Southeast  Level FlightAware
Wed 07:06:00 PM 10.7564 -67.2179 124° Southeast  Level FlightAware
Wed 07:07:00 PM 10.6890 -67.1242 127° Southeast  Level FlightAware
Wed 07:08:00 PM 10.6232 -67.0297 117° Southeast  Level FlightAware
Wed 07:09:00 PM 10.6031 -66.9906 90° East  Level Estimated
Wed 07:10:00 PM 10.6031 -66.9906 90° East  Level Estimated
Wed 07:11:00 PM 10.6031 -66.9906 90° East  Level Estimated
Wed 07:12:00 PM 10.6031 -66.9906 90° East  Level Estimated
Wed 07:13:00 PM 10.6031 -66.9906 90° East  Level Estimated
Wed 07:14:00 PM 10.6031 -66.9906 90° East  Level Estimated
Wed 07:15:00 PM 10.6031 -66.9906 90° East  Level Estimated
Wed 07:16:00 PM 10.6031 -66.9906 90° East  Level Estimated
Wed 07:17:00 PM 10.6031 -66.9906 90° East  Level Estimated
Wed 07:18:00 PM 10.6031 -66.9906 90° East  Level Estimated
Wed 07:19:00 PM 10.6031 -66.9906 90° East  Level Estimated
Wed 07:20:00 PM 10.6031 -66.9906 90° East  Level Estimated
Wed 07:21:00 PM 10.6031 -66.9906 90° East  Level Estimated
Wed 07:22:00 PM 10.6031 -66.9906 90° East  Level Estimated

Login

Don't have an account? Register now (free) for customized features, flight alerts, and more!